createdAt,value
2023-11-12T00:00:13.847Z,99.90
2023-11-12T00:02:41.328Z,99.90
2023-11-12T00:05:13.259Z,99.90
2023-11-12T00:07:41.367Z,99.90
2023-11-12T00:10:12.216Z,99.90
2023-11-12T00:12:45.709Z,99.90
2023-11-12T00:15:13.512Z,99.90
2023-11-12T00:17:43.343Z,99.90
2023-11-12T00:20:13.977Z,99.90
2023-11-12T00:22:45.131Z,99.90
2023-11-12T00:25:14.616Z,99.90
2023-11-12T00:27:42.523Z,99.90
2023-11-12T00:30:11.176Z,99.90
2023-11-12T00:32:38.946Z,99.90
2023-11-12T00:35:07.019Z,99.90
2023-11-12T00:37:34.507Z,99.90
2023-11-12T00:40:01.993Z,99.90
2023-11-12T00:42:29.400Z,99.90
2023-11-12T00:44:56.944Z,99.90
2023-11-12T00:47:24.564Z,99.90
2023-11-12T00:49:52.775Z,99.90
2023-11-12T00:52:20.237Z,99.90
2023-11-12T00:54:48.388Z,99.90
2023-11-12T00:57:15.767Z,99.90
2023-11-12T00:59:43.499Z,99.90
2023-11-12T01:02:16.518Z,99.90
2023-11-12T01:04:44.319Z,99.90
2023-11-12T01:07:11.823Z,99.90
2023-11-12T01:09:39.289Z,99.90
2023-11-12T01:12:06.965Z,99.90
2023-11-12T01:14:34.499Z,99.90
2023-11-12T01:17:02.873Z,99.90
2023-11-12T01:19:30.333Z,99.90
2023-11-12T01:21:57.754Z,99.90
2023-11-12T01:24:27.367Z,99.90
2023-11-12T01:26:55.016Z,99.90
2023-11-12T01:29:22.752Z,99.90
2023-11-12T01:31:50.816Z,99.90
2023-11-12T01:34:19.387Z,99.90
2023-11-12T01:36:46.816Z,99.90
2023-11-12T01:39:14.242Z,99.90
2023-11-12T01:41:41.666Z,99.90
2023-11-12T01:44:09.089Z,99.90
2023-11-12T01:46:36.653Z,99.90
2023-11-12T01:49:05.038Z,99.90
2023-11-12T01:51:34.280Z,99.90
2023-11-12T01:54:03.404Z,99.90
2023-11-12T01:56:33.431Z,99.90
2023-11-12T01:59:01.460Z,99.90
2023-11-12T02:01:28.956Z,99.90
2023-11-12T02:03:57.541Z,99.90
2023-11-12T02:06:25.710Z,99.90
2023-11-12T02:08:53.152Z,99.90
2023-11-12T02:11:21.185Z,99.90
2023-11-12T02:13:48.838Z,99.90
2023-11-12T02:16:16.306Z,99.90
2023-11-12T02:18:47.812Z,99.90
2023-11-12T02:21:15.383Z,99.90
2023-11-12T02:23:42.758Z,99.90
2023-11-12T02:26:10.449Z,99.90
2023-11-12T02:28:39.906Z,99.90
2023-11-12T02:31:08.025Z,99.90
2023-11-12T02:33:35.568Z,99.90
2023-11-12T02:36:04.634Z,99.90
2023-11-12T02:38:32.520Z,99.90
2023-11-12T02:41:01.768Z,99.90
2023-11-12T02:43:29.400Z,99.90
2023-11-12T02:45:56.869Z,99.90
2023-11-12T02:48:24.393Z,99.90
2023-11-12T02:50:51.848Z,99.90
2023-11-12T02:53:19.322Z,99.90
2023-11-12T02:55:46.714Z,99.90
2023-11-12T02:58:18.034Z,99.90
2023-11-12T03:00:45.617Z,99.90
2023-11-12T03:03:14.993Z,99.90
2023-11-12T03:05:43.022Z,99.90
2023-11-12T03:08:10.454Z,99.90
2023-11-12T03:10:43.028Z,99.90
2023-11-12T03:13:10.504Z,99.90
2023-11-12T03:15:37.956Z,99.90
2023-11-12T03:18:05.529Z,99.90
2023-11-12T03:20:33.027Z,99.90
2023-11-12T03:23:00.509Z,99.90
2023-11-12T03:25:28.287Z,99.90
2023-11-12T03:27:56.036Z,99.90
2023-11-12T03:30:23.434Z,99.90
2023-11-12T03:32:52.873Z,99.90
2023-11-12T03:35:21.093Z,99.90
2023-11-12T03:37:48.499Z,99.90
2023-11-12T03:40:15.981Z,99.90
2023-11-12T03:42:43.600Z,99.90
2023-11-12T03:45:11.669Z,99.90
2023-11-12T03:47:39.165Z,99.90
2023-11-12T03:50:06.946Z,99.90
2023-11-12T03:52:34.358Z,99.90
2023-11-12T03:55:01.773Z,99.90
2023-11-12T03:57:29.327Z,99.90
2023-11-12T03:59:56.808Z,99.90
2023-11-12T04:02:25.247Z,99.90
2023-11-12T04:04:53.705Z,99.90
2023-11-12T04:07:21.194Z,99.90
2023-11-12T04:09:48.537Z,99.90
2023-11-12T04:12:16.020Z,99.90
2023-11-12T04:14:43.422Z,99.90
2023-11-12T04:17:10.847Z,99.90
2023-11-12T04:19:38.270Z,99.90
2023-11-12T04:22:05.758Z,99.90
2023-11-12T04:24:33.205Z,99.90
2023-11-12T04:27:00.743Z,99.90
2023-11-12T04:29:28.186Z,99.90
2023-11-12T04:31:55.626Z,99.90
2023-11-12T04:34:23.039Z,99.90
2023-11-12T04:36:50.451Z,99.90
2023-11-12T04:39:20.123Z,99.90
2023-11-12T04:41:47.627Z,99.90
2023-11-12T04:44:15.355Z,99.90
2023-11-12T04:46:43.018Z,99.90
2023-11-12T04:49:10.416Z,99.90
2023-11-12T04:51:37.907Z,99.90
2023-11-12T04:54:05.808Z,99.90
2023-11-12T04:56:33.356Z,99.90
2023-11-12T04:59:00.790Z,99.90
2023-11-12T05:01:28.746Z,99.90
2023-11-12T05:03:56.501Z,99.90
2023-11-12T05:06:29.591Z,99.90
2023-11-12T05:08:57.278Z,99.90
2023-11-12T05:11:25.204Z,99.90
2023-11-12T05:13:53.086Z,99.90
2023-11-12T05:16:20.947Z,99.90
2023-11-12T05:18:48.424Z,99.90
2023-11-12T05:21:16.357Z,99.90
2023-11-12T05:23:43.750Z,99.90
2023-11-12T05:26:11.166Z,99.90
2023-11-12T05:28:38.630Z,99.90
2023-11-12T05:31:06.160Z,99.90
2023-11-12T05:33:33.903Z,99.90
2023-11-12T05:36:01.588Z,99.90
2023-11-12T05:38:29.186Z,99.90
2023-11-12T05:40:56.707Z,99.90
2023-11-12T05:43:24.184Z,99.90
2023-11-12T05:45:51.805Z,99.90
2023-11-12T05:48:19.280Z,99.90
2023-11-12T05:50:46.838Z,99.90
2023-11-12T05:53:14.325Z,99.90
2023-11-12T05:55:41.756Z,99.90
2023-11-12T05:58:09.125Z,99.90
2023-11-12T06:00:36.563Z,99.90
2023-11-12T06:03:04.197Z,99.90
2023-11-12T06:05:31.673Z,99.90
2023-11-12T06:07:59.075Z,99.90
2023-11-12T06:10:28.733Z,99.90
2023-11-12T06:12:56.762Z,99.90
2023-11-12T06:15:28.489Z,99.90
2023-11-12T06:17:56.169Z,99.90
2023-11-12T06:20:24.792Z,99.90
2023-11-12T06:22:52.190Z,99.90
2023-11-12T06:25:19.612Z,99.90
2023-11-12T06:27:48.529Z,99.90
2023-11-12T06:30:16.198Z,99.90
2023-11-12T06:32:44.966Z,99.90
2023-11-12T06:35:12.782Z,99.90
2023-11-12T06:37:40.219Z,99.90
2023-11-12T06:40:08.181Z,99.90
2023-11-12T06:42:35.657Z,99.90
2023-11-12T06:45:03.214Z,99.90
2023-11-12T06:47:30.631Z,99.90
2023-11-12T06:49:58.202Z,99.90
2023-11-12T06:52:25.597Z,99.90
2023-11-12T06:54:52.997Z,99.90
2023-11-12T06:57:20.595Z,99.90
2023-11-12T06:59:48.109Z,99.90
2023-11-12T07:02:16.483Z,99.90
2023-11-12T07:04:44.055Z,99.90
2023-11-12T07:07:16.851Z,99.90
2023-11-12T07:09:47.224Z,99.90
2023-11-12T07:12:16.385Z,99.90
2023-11-12T07:14:44.237Z,99.90
2023-11-12T07:17:11.759Z,99.90
2023-11-12T07:19:41.259Z,99.90
2023-11-12T07:22:08.875Z,99.90
2023-11-12T07:24:37.398Z,99.90
2023-11-12T07:27:05.193Z,99.90
2023-11-12T07:29:32.655Z,99.90
2023-11-12T07:32:00.096Z,99.90
2023-11-12T07:34:27.727Z,99.90
2023-11-12T07:36:55.161Z,99.90
2023-11-12T07:39:22.719Z,99.90
2023-11-12T07:41:50.197Z,99.90
2023-11-12T07:44:17.626Z,99.90
2023-11-12T07:46:45.141Z,99.90
2023-11-12T07:49:13.484Z,99.90
2023-11-12T07:51:40.990Z,99.90
2023-11-12T07:54:08.497Z,99.90
2023-11-12T07:56:41.705Z,99.90
2023-11-12T07:59:10.089Z,99.90
2023-11-12T08:01:37.692Z,99.90
2023-11-12T08:04:05.879Z,99.90
2023-11-12T08:06:33.438Z,99.90
2023-11-12T08:09:01.358Z,99.90
2023-11-12T08:11:41.595Z,99.90
2023-11-12T08:14:10.398Z,99.90
2023-11-12T08:16:38.173Z,99.90
2023-11-12T08:19:07.116Z,99.90
2023-11-12T08:21:34.596Z,99.90
2023-11-12T08:24:02.125Z,99.90
2023-11-12T08:26:30.750Z,99.90
2023-11-12T08:28:58.748Z,99.90
2023-11-12T08:31:27.051Z,99.90
2023-11-12T08:33:54.679Z,99.90
2023-11-12T08:36:22.112Z,99.90
2023-11-12T08:38:49.631Z,99.90
2023-11-12T08:41:17.063Z,99.90
2023-11-12T08:43:47.107Z,99.90
2023-11-12T08:46:16.534Z,99.90
2023-11-12T08:48:44.564Z,99.90
2023-11-12T08:51:12.800Z,99.90
2023-11-12T08:53:40.758Z,99.90
2023-11-12T08:56:08.878Z,99.90
2023-11-12T08:58:36.874Z,99.90
2023-11-12T09:01:05.812Z,99.90
2023-11-12T09:03:33.389Z,99.90
2023-11-12T09:06:00.813Z,99.90
2023-11-12T09:08:28.269Z,99.90
2023-11-12T09:10:55.633Z,99.90
2023-11-12T09:13:23.197Z,99.90
2023-11-12T09:15:50.922Z,99.90
2023-11-12T09:18:20.546Z,99.90
2023-11-12T09:20:48.330Z,99.90
2023-11-12T09:23:17.309Z,99.90
2023-11-12T09:25:45.680Z,99.90
2023-11-12T09:28:13.086Z,99.90
2023-11-12T09:30:49.555Z,99.90
2023-11-12T09:33:25.801Z,99.90
2023-11-12T09:35:53.707Z,99.90
2023-11-12T09:38:22.079Z,99.90
2023-11-12T09:40:50.754Z,99.90
2023-11-12T09:43:18.459Z,99.90
2023-11-12T09:45:51.650Z,99.90
2023-11-12T09:48:37.178Z,99.90
2023-11-12T09:51:09.725Z,99.90
2023-11-12T09:53:41.586Z,99.90
2023-11-12T09:56:10.361Z,99.90
2023-11-12T09:58:41.918Z,99.90
2023-11-12T10:01:10.446Z,99.90
2023-11-12T10:03:39.409Z,99.90
2023-11-12T10:06:07.804Z,99.90
2023-11-12T10:08:38.601Z,99.90
2023-11-12T10:11:20.105Z,99.90
2023-11-12T10:13:48.699Z,99.90
2023-11-12T10:16:22.083Z,99.90
2023-11-12T10:18:49.603Z,99.90
2023-11-12T10:21:17.292Z,99.90
2023-11-12T10:23:44.784Z,99.90
2023-11-12T10:26:13.741Z,99.90
2023-11-12T10:28:41.929Z,99.90
2023-11-12T10:31:14.718Z,99.90
2023-11-12T10:33:43.064Z,99.90
2023-11-12T10:36:11.623Z,99.90
2023-11-12T10:38:49.364Z,99.90
2023-11-12T10:41:17.203Z,99.90
2023-11-12T10:43:58.492Z,99.90
2023-11-12T10:46:29.434Z,99.90
2023-11-12T10:48:57.700Z,99.90
2023-11-12T10:51:26.659Z,99.90
2023-11-12T10:53:57.690Z,99.90
2023-11-12T10:56:26.511Z,99.90
2023-11-12T10:58:55.260Z,99.90
2023-11-12T11:01:24.083Z,99.90
2023-11-12T11:03:52.748Z,99.90
2023-11-12T11:06:21.160Z,99.90
2023-11-12T11:08:48.581Z,99.90
2023-11-12T11:11:16.233Z,99.90
2023-11-12T11:13:44.292Z,99.90
2023-11-12T11:16:33.694Z,99.90
2023-11-12T11:19:01.319Z,99.90
2023-11-12T11:21:28.829Z,99.90
2023-11-12T11:23:57.108Z,99.90
2023-11-12T11:26:38.465Z,99.90
2023-11-12T11:29:05.978Z,99.90
2023-11-12T11:31:33.876Z,99.90
2023-11-12T11:34:04.271Z,99.90
2023-11-12T11:36:32.728Z,99.90
2023-11-12T11:39:12.272Z,99.90
2023-11-12T11:41:51.768Z,99.90
2023-11-12T11:44:41.339Z,99.90
2023-11-12T11:47:10.619Z,99.90
2023-11-12T11:49:38.090Z,99.90
2023-11-12T11:52:07.156Z,99.90
2023-11-12T11:54:35.487Z,99.90
2023-11-12T11:57:03.449Z,99.90
2023-11-12T11:59:34.784Z,99.90
2023-11-12T12:02:02.490Z,99.90
2023-11-12T12:04:30.344Z,99.90
2023-11-12T12:06:57.919Z,99.90
2023-11-12T12:09:25.713Z,99.90
2023-11-12T12:11:54.655Z,99.90
2023-11-12T12:14:25.446Z,99.90
2023-11-12T12:16:52.965Z,99.90
2023-11-12T12:19:26.249Z,99.90
2023-11-12T12:21:53.892Z,99.90
2023-11-12T12:24:23.233Z,99.90
2023-11-12T12:26:51.498Z,99.90
2023-11-12T12:29:23.401Z,99.90
2023-11-12T12:31:52.987Z,99.90
2023-11-12T12:34:21.799Z,99.90
2023-11-12T12:36:59.103Z,99.90
2023-11-12T12:39:28.334Z,99.90
2023-11-12T12:42:04.745Z,99.90
2023-11-12T12:44:34.306Z,99.90
2023-11-12T12:47:01.837Z,99.90
2023-11-12T12:49:33.692Z,99.90
2023-11-12T12:52:04.692Z,99.90
2023-11-12T12:54:32.912Z,99.90
2023-11-12T12:57:03.543Z,99.90
2023-11-12T12:59:36.376Z,99.90
2023-11-12T13:02:04.826Z,99.90
2023-11-12T13:04:34.111Z,99.90
2023-11-12T13:07:07.518Z,90.20
2023-11-12T13:09:35.228Z,91.80
2023-11-12T13:12:04.906Z,92.20
2023-11-12T13:14:35.155Z,95.50
2023-11-12T13:17:02.732Z,95.40
2023-11-12T13:19:31.408Z,97.40
2023-11-12T13:22:03.181Z,94.20
2023-11-12T13:24:31.831Z,99.90
2023-11-12T13:26:59.476Z,99.90
2023-11-12T13:29:29.059Z,99.90
2023-11-12T13:32:00.429Z,99.90
2023-11-12T13:34:28.223Z,99.90
2023-11-12T13:36:55.701Z,99.90
2023-11-12T13:39:23.714Z,99.90
2023-11-12T13:41:51.331Z,99.90
2023-11-12T13:44:23.492Z,99.90
2023-11-12T13:46:54.264Z,99.90
2023-11-12T13:49:21.925Z,99.90
2023-11-12T13:51:50.817Z,99.90
2023-11-12T13:54:20.427Z,99.90
2023-11-12T13:56:48.853Z,99.90
2023-11-12T13:59:18.044Z,99.90
2023-11-12T14:01:46.534Z,99.90
2023-11-12T14:04:15.259Z,99.90
2023-11-12T14:06:44.678Z,99.90
2023-11-12T14:09:13.386Z,99.90
2023-11-12T14:11:41.022Z,99.90
2023-11-12T14:14:08.764Z,99.90
2023-11-12T14:16:40.395Z,99.90
2023-11-12T14:19:11.953Z,99.90
2023-11-12T14:21:43.304Z,99.90
2023-11-12T14:24:14.268Z,99.90
2023-11-12T14:26:46.319Z,99.90
2023-11-12T14:29:14.344Z,99.90
2023-11-12T14:31:41.745Z,99.90
2023-11-12T14:34:16.261Z,99.90
2023-11-12T14:36:44.001Z,99.90
2023-11-12T14:39:12.221Z,99.90
2023-11-12T14:41:42.536Z,99.90
2023-11-12T14:44:10.073Z,99.90
2023-11-12T14:46:38.018Z,99.90
2023-11-12T14:49:09.920Z,99.90
2023-11-12T14:51:44.905Z,99.90
2023-11-12T14:54:15.038Z,99.90
2023-11-12T14:56:42.613Z,99.90
2023-11-12T14:59:12.966Z,99.90
2023-11-12T15:01:46.715Z,99.90
2023-11-12T15:04:16.416Z,99.90
2023-11-12T15:06:44.182Z,99.90
2023-11-12T15:09:12.204Z,99.90
2023-11-12T15:11:41.760Z,99.90
2023-11-12T15:14:09.438Z,99.90
2023-11-12T15:16:36.849Z,99.90
2023-11-12T15:19:04.578Z,99.90
2023-11-12T15:21:32.028Z,99.90
2023-11-12T15:23:59.540Z,99.90
2023-11-12T15:26:26.929Z,99.90
2023-11-12T15:28:56.433Z,99.90
2023-11-12T15:31:23.957Z,99.90
2023-11-12T15:33:51.448Z,99.90
2023-11-12T15:36:18.904Z,99.90
2023-11-12T15:38:46.380Z,99.90
2023-11-12T15:41:14.771Z,99.90
2023-11-12T15:43:43.200Z,99.90
2023-11-12T15:46:13.902Z,99.90
2023-11-12T15:48:42.151Z,99.90
2023-11-12T15:51:09.597Z,99.90
2023-11-12T15:53:36.988Z,99.90
2023-11-12T15:56:05.577Z,99.90
2023-11-12T15:58:33.097Z,99.90
2023-11-12T16:01:00.569Z,99.90
2023-11-12T16:03:28.148Z,99.90
2023-11-12T16:05:55.631Z,99.90
2023-11-12T16:08:24.776Z,99.90
2023-11-12T16:10:52.249Z,99.90
2023-11-12T16:13:19.758Z,99.90
2023-11-12T16:15:47.204Z,99.90
2023-11-12T16:18:14.682Z,99.90
2023-11-12T16:20:42.145Z,99.90
2023-11-12T16:23:09.579Z,99.90
2023-11-12T16:25:37.017Z,99.90
2023-11-12T16:28:04.707Z,99.90
2023-11-12T16:30:32.262Z,99.90
2023-11-12T16:33:00.419Z,99.90
2023-11-12T16:35:27.962Z,99.90
2023-11-12T16:37:56.434Z,99.90
2023-11-12T16:40:23.910Z,99.90
2023-11-12T16:42:51.438Z,99.90
2023-11-12T16:45:19.260Z,99.90
2023-11-12T16:47:47.183Z,99.90
2023-11-12T16:50:17.175Z,99.90
2023-11-12T16:52:44.850Z,99.90
2023-11-12T16:55:12.474Z,99.90
2023-11-12T16:57:40.637Z,99.90
2023-11-12T17:00:09.106Z,99.90
2023-11-12T17:02:37.042Z,99.90
2023-11-12T17:05:06.033Z,99.90
2023-11-12T17:07:34.097Z,99.90
2023-11-12T17:10:02.924Z,99.90
2023-11-12T17:12:30.639Z,99.90
2023-11-12T17:15:01.232Z,99.90
2023-11-12T17:17:29.249Z,99.90
2023-11-12T17:19:57.031Z,99.90
2023-11-12T17:22:25.869Z,99.90
2023-11-12T17:24:53.465Z,99.90
2023-11-12T17:27:21.062Z,99.90
2023-11-12T17:29:48.432Z,99.90
2023-11-12T17:32:16.472Z,99.90
2023-11-12T17:34:44.037Z,99.90
2023-11-12T17:37:12.350Z,99.90
2023-11-12T17:39:39.940Z,99.90
2023-11-12T17:42:07.666Z,99.90
2023-11-12T17:44:36.026Z,99.90
2023-11-12T17:47:03.705Z,99.90
2023-11-12T17:49:33.162Z,99.90
2023-11-12T17:52:01.149Z,99.90
2023-11-12T17:54:28.691Z,99.90
2023-11-12T17:56:56.152Z,99.90
2023-11-12T17:59:23.679Z,99.90
2023-11-12T18:01:52.182Z,99.90
2023-11-12T18:04:20.270Z,99.90
2023-11-12T18:06:49.056Z,99.90
2023-11-12T18:09:19.018Z,99.90
2023-11-12T18:11:46.803Z,99.90
2023-11-12T18:14:16.366Z,99.90
2023-11-12T18:16:48.058Z,99.90
2023-11-12T18:19:15.818Z,99.90
2023-11-12T18:21:43.847Z,99.90
2023-11-12T18:24:12.489Z,99.90
2023-11-12T18:26:40.449Z,99.90
2023-11-12T18:29:08.139Z,99.90
2023-11-12T18:31:38.566Z,99.90
2023-11-12T18:34:06.866Z,99.90
2023-11-12T18:36:34.636Z,99.90
2023-11-12T18:39:02.182Z,99.90
2023-11-12T18:41:30.431Z,99.90
2023-11-12T18:43:57.946Z,99.90
2023-11-12T18:46:25.595Z,99.90
2023-11-12T18:48:55.608Z,99.90
2023-11-12T18:51:23.249Z,99.90
2023-11-12T18:53:51.548Z,99.90
2023-11-12T18:56:20.999Z,99.90
2023-11-12T18:58:51.898Z,99.90
2023-11-12T19:01:19.539Z,99.90
2023-11-12T19:03:47.275Z,99.90
2023-11-12T19:06:14.806Z,99.90
2023-11-12T19:08:42.279Z,99.90
2023-11-12T19:11:12.628Z,99.90
2023-11-12T19:13:41.664Z,99.90
2023-11-12T19:16:10.472Z,99.90
2023-11-12T19:18:38.710Z,99.90
2023-11-12T19:21:06.491Z,99.90
2023-11-12T19:23:34.885Z,99.90
2023-11-12T19:26:02.361Z,99.90
2023-11-12T19:28:29.862Z,99.90
2023-11-12T19:30:57.326Z,99.90
2023-11-12T19:33:24.798Z,99.90
2023-11-12T19:35:52.398Z,99.90
2023-11-12T19:38:19.920Z,99.90
2023-11-12T19:40:47.687Z,99.90
2023-11-12T19:43:15.206Z,99.90
2023-11-12T19:45:42.696Z,99.90
2023-11-12T19:48:10.810Z,99.90
2023-11-12T19:50:38.446Z,99.90
2023-11-12T19:53:05.995Z,99.90
2023-11-12T19:55:34.683Z,99.90
2023-11-12T19:58:03.164Z,99.90
2023-11-12T20:00:32.110Z,99.90
2023-11-12T20:03:00.452Z,99.90
2023-11-12T20:05:28.013Z,99.90
2023-11-12T20:07:55.402Z,99.90
2023-11-12T20:10:23.380Z,99.90
2023-11-12T20:12:51.509Z,99.90
2023-11-12T20:15:19.813Z,99.90
2023-11-12T20:17:48.547Z,99.90
2023-11-12T20:20:16.329Z,99.90
2023-11-12T20:22:43.838Z,99.90
2023-11-12T20:25:14.674Z,99.90
2023-11-12T20:27:42.506Z,99.90
2023-11-12T20:30:11.262Z,99.90
2023-11-12T20:32:40.486Z,99.90
2023-11-12T20:35:10.729Z,99.90
2023-11-12T20:37:38.631Z,99.90
2023-11-12T20:40:10.381Z,99.90
2023-11-12T20:42:38.864Z,99.90
2023-11-12T20:45:07.491Z,99.90
2023-11-12T20:47:34.973Z,99.90
2023-11-12T20:50:02.530Z,99.90
2023-11-12T20:52:32.367Z,99.90
2023-11-12T20:55:01.662Z,99.90
2023-11-12T20:57:32.148Z,99.90
2023-11-12T21:00:00.266Z,99.90
2023-11-12T21:02:28.074Z,99.90
2023-11-12T21:04:56.918Z,99.90
2023-11-12T21:07:24.736Z,99.90
2023-11-12T21:09:52.717Z,99.90
2023-11-12T21:12:22.356Z,99.90
2023-11-12T21:14:49.936Z,99.90
2023-11-12T21:17:17.319Z,99.90
2023-11-12T21:19:45.137Z,99.90
2023-11-12T21:22:12.653Z,99.90
2023-11-12T21:24:43.733Z,99.90
2023-11-12T21:27:13.452Z,99.90
2023-11-12T21:29:41.208Z,99.90
2023-11-12T21:32:10.309Z,99.90
2023-11-12T21:34:38.357Z,99.90
2023-11-12T21:37:08.675Z,99.90
2023-11-12T21:39:39.296Z,99.90
2023-11-12T21:42:06.873Z,99.90
2023-11-12T21:44:34.777Z,99.90
2023-11-12T21:47:03.673Z,99.90
2023-11-12T21:49:31.357Z,99.90
2023-11-12T21:51:59.317Z,99.90
2023-11-12T21:54:26.856Z,99.90
2023-11-12T21:56:55.733Z,99.90
2023-11-12T21:59:23.849Z,99.90
2023-11-12T22:01:55.182Z,99.90
2023-11-12T22:04:22.933Z,99.90
2023-11-12T22:06:50.560Z,99.90
2023-11-12T22:09:18.868Z,99.90
2023-11-12T22:11:46.415Z,99.90
2023-11-12T22:14:14.501Z,99.90
2023-11-12T22:16:42.874Z,99.90
2023-11-12T22:19:12.821Z,99.90
2023-11-12T22:21:40.962Z,99.90
2023-11-12T22:24:08.967Z,99.90
2023-11-12T22:26:42.686Z,99.90
2023-11-12T22:29:10.132Z,99.90
2023-11-12T22:31:37.733Z,99.90
2023-11-12T22:34:05.372Z,99.90
2023-11-12T22:36:32.977Z,99.90
2023-11-12T22:39:00.429Z,99.90
2023-11-12T22:41:27.850Z,99.90
2023-11-12T22:43:55.417Z,99.90
2023-11-12T22:46:22.874Z,99.90
2023-11-12T22:48:50.702Z,99.90
2023-11-12T22:51:18.188Z,99.90
2023-11-12T22:53:45.682Z,99.90
2023-11-12T22:56:13.043Z,99.90
2023-11-12T22:58:40.626Z,99.90
2023-11-12T23:01:08.212Z,99.90
2023-11-12T23:03:36.045Z,99.90
2023-11-12T23:06:04.021Z,99.90
2023-11-12T23:08:32.233Z,99.90
2023-11-12T23:10:59.711Z,99.90
2023-11-12T23:13:28.468Z,99.90
2023-11-12T23:15:57.925Z,99.90
2023-11-12T23:18:25.466Z,99.90
2023-11-12T23:20:59.281Z,99.90
2023-11-12T23:23:33.966Z,99.90
2023-11-12T23:26:02.706Z,99.90
2023-11-12T23:28:30.342Z,99.90
2023-11-12T23:30:59.937Z,99.90
2023-11-12T23:33:27.638Z,99.90
2023-11-12T23:35:55.490Z,99.90
2023-11-12T23:38:23.224Z,99.90
2023-11-12T23:40:50.575Z,99.90
2023-11-12T23:43:18.162Z,99.90
2023-11-12T23:45:45.864Z,99.90
2023-11-12T23:48:13.492Z,99.90
2023-11-12T23:50:40.921Z,99.90
2023-11-12T23:53:08.472Z,99.90
2023-11-12T23:55:36.518Z,99.90
2023-11-12T23:58:05.036Z,99.90
